createdAt,value
2022-10-04T00:01:12.499Z,12.70
2022-10-04T00:03:49.482Z,12.80
2022-10-04T00:06:25.822Z,12.70
2022-10-04T00:09:11.559Z,12.60
2022-10-04T00:11:43.507Z,12.60
2022-10-04T00:14:19.786Z,12.60
2022-10-04T00:16:47.122Z,12.50
2022-10-04T00:19:19.975Z,12.50
2022-10-04T00:21:53.404Z,12.50
2022-10-04T00:24:31.007Z,12.40
2022-10-04T00:27:25.087Z,12.30
2022-10-04T00:30:04.206Z,12.30
2022-10-04T00:32:40.442Z,12.30
2022-10-04T00:35:30.768Z,12.30
2022-10-04T00:38:00.724Z,12.20
2022-10-04T00:40:35.842Z,12.20
2022-10-04T00:43:08.400Z,12.20
2022-10-04T00:45:41.287Z,12.20
2022-10-04T00:48:08.069Z,12.20
2022-10-04T00:50:51.249Z,12.30
2022-10-04T00:53:42.122Z,12.30
2022-10-04T00:56:16.869Z,12.30
2022-10-04T00:59:12.267Z,12.30
2022-10-04T01:01:39.251Z,12.30
2022-10-04T01:04:24.033Z,12.30
2022-10-04T01:06:51.433Z,12.30
2022-10-04T01:09:18.781Z,12.30
2022-10-04T01:11:56.459Z,12.30
2022-10-04T01:14:40.359Z,12.30
2022-10-04T01:17:08.894Z,12.40
2022-10-04T01:19:35.951Z,12.40
2022-10-04T01:22:05.483Z,12.40
2022-10-04T01:24:43.741Z,12.50
2022-10-04T01:27:30.819Z,12.50
2022-10-04T01:29:58.947Z,12.50
2022-10-04T01:32:26.187Z,12.50
2022-10-04T01:34:53.180Z,12.50
2022-10-04T01:37:20.078Z,12.60
2022-10-04T01:39:47.223Z,12.60
2022-10-04T01:42:27.408Z,12.60
2022-10-04T01:45:08.257Z,12.70
2022-10-04T01:47:58.370Z,12.70
2022-10-04T01:50:39.294Z,12.70
2022-10-04T01:53:26.761Z,12.70
2022-10-04T01:56:03.428Z,12.70
2022-10-04T01:59:07.331Z,12.70
2022-10-04T02:01:39.210Z,12.70
2022-10-04T02:04:21.882Z,12.70
2022-10-04T02:06:54.259Z,12.70
2022-10-04T02:09:50.600Z,12.80
2022-10-04T02:12:19.217Z,12.70
2022-10-04T02:14:55.701Z,12.70
2022-10-04T02:17:32.272Z,12.70
2022-10-04T02:20:01.486Z,12.70
2022-10-04T02:22:29.128Z,12.70
2022-10-04T02:24:57.915Z,12.70
2022-10-04T02:27:31.032Z,12.70
2022-10-04T02:30:03.384Z,12.80
2022-10-04T02:32:50.702Z,12.80
2022-10-04T02:35:19.849Z,12.80
2022-10-04T02:37:53.370Z,12.80
2022-10-04T02:40:27.027Z,12.80
2022-10-04T02:43:19.089Z,12.80
2022-10-04T02:45:56.991Z,12.70
2022-10-04T02:49:08.245Z,12.70
2022-10-04T02:51:46.485Z,12.70
2022-10-04T02:54:29.853Z,12.70
2022-10-04T02:56:58.278Z,12.70
2022-10-04T02:59:25.660Z,12.70
2022-10-04T03:01:58.138Z,12.70
2022-10-04T03:04:40.106Z,12.70
2022-10-04T03:07:09.159Z,12.80
2022-10-04T03:09:37.744Z,12.70
2022-10-04T03:12:06.069Z,12.80
2022-10-04T03:14:33.990Z,12.80
2022-10-04T03:17:04.181Z,12.90
2022-10-04T03:19:33.418Z,12.80
2022-10-04T03:22:07.370Z,12.80
2022-10-04T03:24:38.367Z,12.80
2022-10-04T03:27:08.784Z,12.80
2022-10-04T03:29:43.071Z,12.80
2022-10-04T03:32:13.816Z,12.80
2022-10-04T03:34:44.083Z,12.80
2022-10-04T03:37:17.248Z,12.90
2022-10-04T03:39:47.370Z,12.90
2022-10-04T03:42:24.292Z,12.90
2022-10-04T03:44:54.142Z,12.90
2022-10-04T03:47:31.967Z,12.90
2022-10-04T03:50:03.756Z,12.90
2022-10-04T03:52:34.908Z,12.90
2022-10-04T03:55:05.855Z,12.90
2022-10-04T03:57:33.713Z,12.90
2022-10-04T04:00:01.454Z,12.90
2022-10-04T04:03:02.925Z,12.90
2022-10-04T04:05:35.608Z,12.90
2022-10-04T04:08:17.568Z,12.90
2022-10-04T04:10:50.463Z,12.90
2022-10-04T04:13:43.778Z,12.90
2022-10-04T04:16:11.666Z,12.90
2022-10-04T04:18:43.266Z,12.90
2022-10-04T04:21:13.389Z,12.90
2022-10-04T04:23:44.614Z,12.90
2022-10-04T04:26:11.652Z,12.90
2022-10-04T04:28:49.285Z,12.90
2022-10-04T04:31:32.218Z,12.90
2022-10-04T04:34:06.312Z,12.90
2022-10-04T04:36:41.637Z,13.00
2022-10-04T04:39:36.071Z,13.00
2022-10-04T04:42:21.731Z,13.00
2022-10-04T04:44:53.393Z,13.00
2022-10-04T04:47:42.186Z,12.90
2022-10-04T04:50:18.201Z,13.00
2022-10-04T04:52:53.200Z,12.90
2022-10-04T04:55:26.228Z,12.90
2022-10-04T04:57:56.038Z,12.90
2022-10-04T05:00:29.286Z,12.90
2022-10-04T05:02:59.150Z,12.90
2022-10-04T05:05:32.555Z,12.90
2022-10-04T05:08:23.701Z,12.90
2022-10-04T05:11:06.153Z,12.90
2022-10-04T05:13:56.088Z,12.90
2022-10-04T05:16:26.375Z,12.90
2022-10-04T05:19:05.334Z,12.90
2022-10-04T05:21:34.746Z,12.90
2022-10-04T05:24:33.403Z,13.00
2022-10-04T05:27:16.754Z,13.00
2022-10-04T05:30:13.694Z,13.00
2022-10-04T05:32:46.620Z,13.10
2022-10-04T05:35:16.640Z,13.10
2022-10-04T05:38:04.727Z,13.10
2022-10-04T05:40:53.826Z,13.20
2022-10-04T05:43:36.931Z,13.20
2022-10-04T05:46:22.708Z,13.20
2022-10-04T05:48:58.774Z,13.20
2022-10-04T05:51:33.991Z,13.20
2022-10-04T05:54:03.026Z,13.20
2022-10-04T05:56:40.519Z,13.30
2022-10-04T05:59:39.176Z,13.30
2022-10-04T06:02:31.475Z,13.40
2022-10-04T06:05:35.870Z,13.30
2022-10-04T06:08:29.407Z,13.30
2022-10-04T06:11:03.613Z,13.40
2022-10-04T06:14:04.225Z,13.40
2022-10-04T06:16:46.511Z,13.40
2022-10-04T06:19:32.996Z,13.40
2022-10-04T06:22:15.220Z,13.50
2022-10-04T06:24:56.354Z,13.50
2022-10-04T06:27:46.633Z,13.60
2022-10-04T06:30:18.789Z,13.60
2022-10-04T06:33:28.964Z,13.60
2022-10-04T06:36:01.806Z,13.70
2022-10-04T06:38:44.471Z,13.80
2022-10-04T06:41:16.231Z,13.80
2022-10-04T06:43:57.858Z,13.90
2022-10-04T06:46:51.873Z,14.00
2022-10-04T06:49:37.339Z,14.10
2022-10-04T06:52:17.270Z,14.10
2022-10-04T06:55:27.562Z,14.20
2022-10-04T06:58:18.988Z,14.30
2022-10-04T07:01:04.873Z,14.50
2022-10-04T07:03:50.555Z,14.60
2022-10-04T07:06:25.842Z,14.70
2022-10-04T07:08:59.531Z,14.90
2022-10-04T07:11:32.660Z,15.00
2022-10-04T07:14:08.409Z,15.10
2022-10-04T07:16:47.685Z,15.30
2022-10-04T07:19:20.630Z,15.40
2022-10-04T07:21:59.608Z,15.50
2022-10-04T07:24:44.059Z,15.70
2022-10-04T07:27:21.637Z,15.80
2022-10-04T07:29:58.094Z,16.00
2022-10-04T07:32:31.999Z,16.10
2022-10-04T07:35:12.899Z,16.20
2022-10-04T07:38:06.122Z,16.30
2022-10-04T07:40:58.936Z,16.30
2022-10-04T07:43:52.260Z,16.20
2022-10-04T07:46:40.420Z,16.20
2022-10-04T07:49:14.294Z,16.20
2022-10-04T07:51:49.255Z,16.10
2022-10-04T07:54:48.346Z,16.20
2022-10-04T07:57:26.231Z,16.20
2022-10-04T08:00:20.749Z,16.20
2022-10-04T08:03:15.091Z,16.20
2022-10-04T08:05:48.045Z,16.10
2022-10-04T08:08:43.691Z,16.10
2022-10-04T08:11:22.437Z,16.00
2022-10-04T08:14:01.361Z,15.90
2022-10-04T08:17:01.527Z,15.90
2022-10-04T08:19:51.543Z,15.90
2022-10-04T08:22:34.869Z,16.00
2022-10-04T08:25:52.084Z,16.10
2022-10-04T08:28:49.760Z,16.20
2022-10-04T08:31:39.364Z,16.20
2022-10-04T08:34:29.162Z,16.40
2022-10-04T08:37:24.232Z,16.70
2022-10-04T08:40:16.240Z,16.90
2022-10-04T08:42:58.362Z,17.00
2022-10-04T08:45:54.551Z,17.10
2022-10-04T08:48:24.716Z,17.30
2022-10-04T08:51:29.336Z,17.40
2022-10-04T08:54:20.949Z,17.60
2022-10-04T08:57:03.034Z,17.70
2022-10-04T08:59:59.129Z,17.70
2022-10-04T09:02:48.163Z,17.70
2022-10-04T09:05:58.792Z,17.70
2022-10-04T09:08:53.421Z,17.60
2022-10-04T09:11:35.314Z,17.50
2022-10-04T09:14:21.125Z,17.30
2022-10-04T09:16:55.934Z,17.10
2022-10-04T09:19:29.229Z,17.00
2022-10-04T09:21:56.056Z,16.90
2022-10-04T09:24:46.152Z,16.90
2022-10-04T09:27:54.057Z,16.80
2022-10-04T09:30:33.066Z,16.90
2022-10-04T09:33:02.764Z,16.90
2022-10-04T09:35:57.022Z,17.00
2022-10-04T09:39:05.878Z,17.00
2022-10-04T09:41:47.334Z,17.00
2022-10-04T09:44:43.923Z,16.80
2022-10-04T09:47:37.712Z,16.80
2022-10-04T09:50:17.500Z,16.80
2022-10-04T09:53:23.172Z,16.70
2022-10-04T09:56:07.183Z,16.70
2022-10-04T09:59:12.368Z,16.60
2022-10-04T10:01:54.627Z,16.60
2022-10-04T10:04:40.461Z,16.50
2022-10-04T10:07:34.633Z,16.50
2022-10-04T10:10:31.527Z,16.40
2022-10-04T10:13:28.828Z,16.50
2022-10-04T10:16:01.957Z,16.50
2022-10-04T10:18:47.232Z,16.60
2022-10-04T10:21:37.386Z,16.70
2022-10-04T10:24:26.687Z,16.70
2022-10-04T10:27:07.648Z,16.90
2022-10-04T10:29:56.107Z,17.00
2022-10-04T10:32:54.237Z,17.00
2022-10-04T10:35:24.803Z,17.10
2022-10-04T10:38:10.445Z,17.10
2022-10-04T10:41:11.310Z,17.10
2022-10-04T10:44:02.138Z,17.10
2022-10-04T10:46:58.811Z,17.20
2022-10-04T10:49:53.578Z,17.30
2022-10-04T10:52:59.336Z,17.20
2022-10-04T10:55:29.228Z,17.30
2022-10-04T10:58:15.364Z,17.40
2022-10-04T11:01:14.423Z,17.50
2022-10-04T11:04:09.222Z,17.50
2022-10-04T11:07:16.453Z,17.60
2022-10-04T11:10:09.344Z,17.70
2022-10-04T11:13:14.489Z,17.90
2022-10-04T11:16:04.126Z,18.00
2022-10-04T11:19:01.523Z,18.20
2022-10-04T11:21:31.376Z,18.20
2022-10-04T11:24:52.672Z,18.30
2022-10-04T11:27:35.294Z,18.50
2022-10-04T11:30:25.175Z,18.50
2022-10-04T11:33:17.360Z,18.40
2022-10-04T11:36:08.230Z,18.20
2022-10-04T11:39:02.657Z,18.10
2022-10-04T11:41:53.174Z,18.00
2022-10-04T11:44:31.501Z,17.80
2022-10-04T11:47:15.947Z,17.90
2022-10-04T11:49:50.546Z,17.80
2022-10-04T11:52:28.059Z,17.80
2022-10-04T11:55:27.171Z,17.80
2022-10-04T11:58:02.117Z,17.80
2022-10-04T12:00:47.266Z,17.80
2022-10-04T12:03:49.947Z,17.70
2022-10-04T12:06:23.096Z,17.70
2022-10-04T12:09:05.015Z,17.80
2022-10-04T12:12:19.368Z,17.70
2022-10-04T12:15:05.507Z,17.80
2022-10-04T12:17:42.445Z,17.80
2022-10-04T12:20:30.975Z,17.90
2022-10-04T12:23:20.116Z,17.90
2022-10-04T12:26:19.558Z,17.90
2022-10-04T12:29:00.167Z,17.90
2022-10-04T12:31:32.339Z,17.90
2022-10-04T12:34:25.100Z,17.90
2022-10-04T12:37:27.925Z,17.90
2022-10-04T12:40:23.690Z,17.80
2022-10-04T12:43:15.199Z,17.90
2022-10-04T12:45:45.149Z,17.90
2022-10-04T12:48:43.242Z,17.90
2022-10-04T12:51:54.759Z,17.90
2022-10-04T12:54:46.055Z,18.00
2022-10-04T12:57:21.938Z,18.00
2022-10-04T12:59:56.015Z,18.00
2022-10-04T13:02:44.934Z,18.10
2022-10-04T13:05:20.545Z,18.10
2022-10-04T13:07:54.232Z,18.10
2022-10-04T13:10:49.251Z,18.20
2022-10-04T13:13:47.436Z,18.20
2022-10-04T13:19:24.566Z,18.10
2022-10-04T13:22:44.343Z,18.20
2022-10-04T13:25:45.689Z,18.20
2022-10-04T13:28:23.168Z,18.20
2022-10-04T13:31:16.511Z,18.20
2022-10-04T13:33:52.151Z,18.20
2022-10-04T13:36:33.193Z,18.20
2022-10-04T13:39:27.066Z,18.20
2022-10-04T13:42:11.436Z,18.20
2022-10-04T13:44:54.862Z,18.40
2022-10-04T13:47:21.690Z,18.20
2022-10-04T13:49:54.114Z,18.20
2022-10-04T13:53:01.720Z,18.20
2022-10-04T13:56:16.532Z,18.20
2022-10-04T13:59:07.418Z,18.20
2022-10-04T14:02:04.197Z,18.20
2022-10-04T14:05:18.888Z,18.20
2022-10-04T14:07:57.682Z,18.20
2022-10-04T14:11:08.005Z,18.30
2022-10-04T14:14:11.848Z,18.30
2022-10-04T14:17:22.797Z,18.30
2022-10-04T14:20:07.048Z,18.30
2022-10-04T14:22:55.345Z,18.30
2022-10-04T14:25:59.681Z,18.30
2022-10-04T14:28:53.967Z,18.30
2022-10-04T14:31:47.162Z,18.40
2022-10-04T14:34:40.342Z,18.40
2022-10-04T14:37:34.478Z,18.40
2022-10-04T14:40:27.292Z,18.40
2022-10-04T14:43:31.363Z,18.40
2022-10-04T14:46:25.222Z,18.40
2022-10-04T14:49:14.415Z,18.40
2022-10-04T14:52:04.605Z,18.40
2022-10-04T14:54:45.506Z,18.40
2022-10-04T14:57:21.341Z,18.40
2022-10-04T15:00:17.041Z,18.30
2022-10-04T15:03:05.941Z,18.30
2022-10-04T15:05:39.068Z,18.30
2022-10-04T15:08:24.648Z,18.30
2022-10-04T15:11:07.332Z,18.30
2022-10-04T15:13:56.544Z,18.20
2022-10-04T15:16:42.877Z,18.20
2022-10-04T15:19:22.306Z,18.20
2022-10-04T15:21:55.189Z,18.20
2022-10-04T15:24:46.815Z,18.20
2022-10-04T15:27:35.591Z,18.20
2022-10-04T15:30:30.908Z,18.10
2022-10-04T15:33:32.016Z,18.10
2022-10-04T15:39:23.805Z,18.00
2022-10-04T15:42:07.168Z,18.00
2022-10-04T15:44:44.559Z,18.00
2022-10-04T15:47:34.055Z,17.90
2022-10-04T15:50:43.592Z,17.90
2022-10-04T15:53:31.129Z,17.90
2022-10-04T15:56:03.708Z,17.90
2022-10-04T15:58:42.432Z,17.80
2022-10-04T16:01:42.815Z,17.80
2022-10-04T16:04:40.343Z,17.70
2022-10-04T16:07:07.147Z,17.70
2022-10-04T16:09:49.181Z,17.60
2022-10-04T16:12:29.400Z,17.60
2022-10-04T16:15:13.918Z,17.50
2022-10-04T16:18:06.298Z,17.50
2022-10-04T16:20:55.230Z,17.50
2022-10-04T16:23:31.965Z,17.40
2022-10-04T16:26:23.823Z,17.30
2022-10-04T16:29:19.410Z,17.20
2022-10-04T16:32:10.278Z,17.20
2022-10-04T16:34:46.148Z,17.10
2022-10-04T16:37:15.613Z,17.00
2022-10-04T16:40:00.717Z,17.00
2022-10-04T16:42:49.748Z,16.90
2022-10-04T16:45:37.805Z,16.80
2022-10-04T16:48:29.299Z,16.80
2022-10-04T16:51:22.285Z,16.70
2022-10-04T16:54:04.638Z,16.60
2022-10-04T16:56:58.277Z,16.50
2022-10-04T16:59:37.271Z,16.50
2022-10-04T17:02:38.626Z,16.40
2022-10-04T17:05:22.472Z,16.40
2022-10-04T17:07:58.725Z,16.30
2022-10-04T17:10:45.394Z,16.20
2022-10-04T17:13:45.758Z,16.20
2022-10-04T17:16:32.313Z,16.10
2022-10-04T17:19:35.604Z,16.10
2022-10-04T17:22:16.453Z,16.00
2022-10-04T17:25:06.916Z,15.90
2022-10-04T17:28:11.370Z,15.90
2022-10-04T17:31:06.855Z,15.80
2022-10-04T17:34:10.725Z,15.80
2022-10-04T17:36:39.348Z,15.80
2022-10-04T17:39:44.577Z,15.70
2022-10-04T17:42:43.428Z,15.80
2022-10-04T17:45:29.408Z,15.70
2022-10-04T17:48:27.313Z,15.70
2022-10-04T17:51:21.154Z,15.60
2022-10-04T17:54:13.796Z,15.60
2022-10-04T17:56:49.263Z,15.60
2022-10-04T17:59:31.103Z,15.50
2022-10-04T18:02:27.578Z,15.50
2022-10-04T18:05:08.371Z,15.50
2022-10-04T18:07:47.817Z,15.40
2022-10-04T18:10:37.565Z,15.40
2022-10-04T18:13:16.294Z,15.40
2022-10-04T18:16:00.490Z,15.40
2022-10-04T18:18:37.092Z,15.30
2022-10-04T18:21:23.707Z,15.30
2022-10-04T18:23:55.428Z,15.30
2022-10-04T18:26:24.569Z,15.30
2022-10-04T18:28:54.161Z,15.20
2022-10-04T18:31:37.181Z,15.20
2022-10-04T18:34:16.741Z,15.10
2022-10-04T18:37:22.634Z,15.00
2022-10-04T18:43:42.393Z,14.90
2022-10-04T18:46:25.699Z,14.80
2022-10-04T18:49:14.422Z,14.80
2022-10-04T18:51:56.726Z,14.70
2022-10-04T18:54:48.518Z,14.40
2022-10-04T18:58:11.068Z,14.60
2022-10-04T19:01:04.550Z,14.60
2022-10-04T19:04:02.344Z,14.50
2022-10-04T19:06:33.611Z,14.50
2022-10-04T19:09:29.068Z,14.40
2022-10-04T19:12:04.885Z,14.40
2022-10-04T19:14:37.902Z,14.40
2022-10-04T19:17:13.961Z,14.40
2022-10-04T19:20:22.502Z,14.30
2022-10-04T19:23:07.555Z,14.40
2022-10-04T19:26:03.019Z,14.40
2022-10-04T19:28:35.605Z,14.30
2022-10-04T19:31:28.293Z,14.30
2022-10-04T19:33:58.211Z,14.30
2022-10-04T19:36:31.505Z,14.30
2022-10-04T19:39:23.687Z,14.30
2022-10-04T19:42:04.497Z,14.30
2022-10-04T19:44:43.471Z,14.20
2022-10-04T19:47:34.141Z,14.20
2022-10-04T19:50:18.762Z,14.10
2022-10-04T19:53:00.842Z,14.10
2022-10-04T19:55:50.816Z,14.10
2022-10-04T19:58:55.373Z,14.10
2022-10-04T20:01:26.103Z,14.00
2022-10-04T20:04:12.618Z,14.00
2022-10-04T20:06:52.926Z,14.00
2022-10-04T20:09:22.896Z,14.00
2022-10-04T20:11:52.231Z,13.90
2022-10-04T20:14:23.395Z,13.90
2022-10-04T20:17:02.420Z,13.90
2022-10-04T20:19:29.507Z,13.90
2022-10-04T20:22:12.584Z,13.80
2022-10-04T20:24:39.624Z,13.80
2022-10-04T20:27:27.981Z,13.80
2022-10-04T20:29:56.088Z,13.70
2022-10-04T20:32:36.993Z,13.70
2022-10-04T20:35:09.936Z,13.90
2022-10-04T20:38:13.838Z,13.70
2022-10-04T20:40:44.233Z,13.70
2022-10-04T20:43:14.166Z,13.70
2022-10-04T20:45:46.269Z,13.70
2022-10-04T20:48:18.731Z,13.70
2022-10-04T20:50:49.447Z,13.70
2022-10-04T20:53:25.703Z,13.70
2022-10-04T20:56:11.901Z,13.70
2022-10-04T20:58:40.536Z,13.70
2022-10-04T21:01:36.337Z,13.60
2022-10-04T21:04:19.936Z,13.70
2022-10-04T21:06:58.293Z,13.50
2022-10-04T21:09:27.702Z,13.50
2022-10-04T21:11:56.926Z,13.50
2022-10-04T21:14:24.681Z,13.50
2022-10-04T21:16:57.454Z,13.50
2022-10-04T21:19:33.110Z,13.50
2022-10-04T21:22:30.507Z,13.50
2022-10-04T21:24:59.933Z,13.60
2022-10-04T21:27:33.923Z,13.60
2022-10-04T21:30:02.671Z,13.60
2022-10-04T21:32:34.705Z,13.60
2022-10-04T21:35:03.694Z,13.60
2022-10-04T21:37:31.269Z,13.60
2022-10-04T21:39:58.278Z,13.60
2022-10-04T21:42:25.796Z,13.60
2022-10-04T21:44:52.821Z,13.60
2022-10-04T21:47:23.296Z,13.60
2022-10-04T21:49:52.118Z,13.60
2022-10-04T21:52:19.270Z,13.60
2022-10-04T21:54:46.597Z,13.70
2022-10-04T21:57:14.078Z,13.70
2022-10-04T21:59:41.059Z,13.70
2022-10-04T22:02:08.368Z,13.70
2022-10-04T22:04:35.429Z,13.80
2022-10-04T22:07:02.422Z,13.80
2022-10-04T22:09:29.475Z,13.80
2022-10-04T22:11:56.528Z,13.80
2022-10-04T22:14:23.534Z,13.90
2022-10-04T22:16:51.315Z,13.90
2022-10-04T22:19:18.595Z,13.90
2022-10-04T22:21:45.640Z,13.90
2022-10-04T22:24:18.486Z,13.90
2022-10-04T22:26:46.126Z,13.90
2022-10-04T22:29:15.964Z,14.10
2022-10-04T22:31:46.665Z,13.90
2022-10-04T22:34:17.368Z,13.90
2022-10-04T22:36:44.888Z,13.90
2022-10-04T22:39:18.710Z,13.90
2022-10-04T22:41:54.226Z,13.90
2022-10-04T22:44:25.833Z,13.90
2022-10-04T22:46:55.442Z,14.00
2022-10-04T22:49:26.177Z,14.00
2022-10-04T22:51:55.087Z,14.00
2022-10-04T22:54:25.905Z,14.00
2022-10-04T22:56:53.499Z,14.10
2022-10-04T22:59:23.114Z,14.10
2022-10-04T23:01:50.219Z,14.10
2022-10-04T23:04:25.010Z,14.10
2022-10-04T23:06:53.141Z,14.10
2022-10-04T23:09:20.799Z,14.10
2022-10-04T23:11:47.899Z,14.10
2022-10-04T23:14:15.086Z,14.10
2022-10-04T23:16:43.682Z,14.10
2022-10-04T23:19:13.698Z,14.10
2022-10-04T23:21:44.751Z,14.10
2022-10-04T23:24:21.007Z,14.10
2022-10-04T23:26:57.169Z,14.00
2022-10-04T23:29:29.874Z,14.00
2022-10-04T23:31:58.147Z,14.00
2022-10-04T23:34:30.236Z,14.00
2022-10-04T23:37:01.272Z,14.00
2022-10-04T23:39:34.732Z,14.00
2022-10-04T23:42:10.443Z,14.00
2022-10-04T23:44:38.137Z,13.90
2022-10-04T23:47:18.107Z,13.90
2022-10-04T23:49:46.783Z,13.90
2022-10-04T23:52:24.461Z,13.90
2022-10-04T23:54:53.626Z,13.90
2022-10-04T23:57:24.618Z,14.00
2022-10-04T23:59:52.425Z,14.00
